Time;durP1;ratioP1;P1;durP2;ratioP2;P2;SDS_P1;SDS_P2;PMS_P1;PMS_P2;Temp;Humidity;BMP_temperature;BMP_pressure;BME280_temperature;BME280_humidity;BME280_pressure;Samples;Min_cycle;Max_cycle;Signal;HPM_P1;HPM_P2
2021/12/13 00:01:50;;;;;;;213.23;87.35;;;-5.20;99.90;;;;;;5052409;28;20088;-76
2021/12/13 00:04:55;;;;;;;215.32;78.47;;;-5.30;99.90;;;;;;5052272;28;20529;-75
2021/12/13 00:07:25;;;;;;;226.02;82.35;;;-5.30;99.90;;;;;;5052181;27;20021;-75
2021/12/13 00:09:53;;;;;;;215.10;80.53;;;-5.40;99.90;;;;;;5052495;28;20017;-76
2021/12/13 00:12:40;;;;;;;194.55;78.93;;;-5.40;99.90;;;;;;5052204;28;20090;-75
2021/12/13 00:15:13;;;;;;;208.20;77.53;;;-5.40;99.90;;;;;;5052071;28;20573;-75
2021/12/13 00:17:47;;;;;;;230.65;85.05;;;-5.40;99.90;;;;;;5052166;28;20440;-75
2021/12/13 00:20:27;;;;;;;201.63;79.72;;;-5.40;99.90;;;;;;5052086;28;20017;-74
2021/12/13 00:22:55;;;;;;;234.38;85.90;;;-5.30;99.90;;;;;;5050775;28;20021;-75
2021/12/13 00:25:25;;;;;;;236.55;95.95;;;-5.30;99.90;;;;;;5050768;27;20021;-75
2021/12/13 00:28:01;;;;;;;251.90;90.03;;;-5.30;99.90;;;;;;5050979;28;20458;-75
2021/12/13 00:30:26;;;;;;;205.23;74.75;;;-5.40;99.90;;;;;;5051933;28;20025;-75
2021/12/13 00:33:29;;;;;;;182.38;68.50;;;-5.40;99.90;;;;;;5051921;28;20139;-75
2021/12/13 00:36:06;;;;;;;189.75;68.95;;;-5.40;99.90;;;;;;5050457;28;20093;-75
2021/12/13 00:38:39;;;;;;;178.70;70.70;;;-5.40;99.90;;;;;;5051850;28;20091;-75
2021/12/13 00:41:10;;;;;;;184.65;70.10;;;-5.40;99.90;;;;;;5050577;28;20028;-75
2021/12/13 00:43:43;;;;;;;180.13;67.78;;;-5.40;99.90;;;;;;5051880;28;20052;-75
2021/12/13 00:46:12;;;;;;;198.52;66.57;;;-5.50;99.90;;;;;;5051390;28;20128;-75
2021/12/13 00:48:42;;;;;;;156.82;60.97;;;-5.50;99.90;;;;;;5051552;28;20032;-75
2021/12/13 00:51:15;;;;;;;197.00;67.88;;;-5.60;99.90;;;;;;5050336;28;20434;-75
2021/12/13 00:53:46;;;;;;;204.73;68.15;;;-5.50;99.90;;;;;;5050209;28;20029;-75
2021/12/13 00:56:43;;;;;;;222.70;72.88;;;-5.50;99.90;;;;;;5051489;28;20062;-75
2021/12/13 00:59:13;;;;;;;346.65;83.50;;;-5.40;99.90;;;;;;5050099;28;20033;-75
2021/12/13 01:01:41;;;;;;;213.48;67.05;;;-5.50;99.90;;;;;;5051392;28;20017;-75
2021/12/13 01:04:13;;;;;;;164.93;60.17;;;-5.50;99.90;;;;;;5051339;28;20025;-76
2021/12/13 01:07:14;;;;;;;189.18;68.90;;;-5.50;99.90;;;;;;5050130;28;20039;-75
2021/12/13 01:10:18;;;;;;;249.63;65.00;;;-5.50;99.90;;;;;;5051110;27;20032;-75
2021/12/13 01:12:48;;;;;;;269.80;74.40;;;-5.50;99.90;;;;;;5049873;28;20052;-74
2021/12/13 01:15:27;;;;;;;196.63;62.25;;;-5.50;99.90;;;;;;5050976;28;20116;-75
2021/12/13 01:18:04;;;;;;;211.60;68.05;;;-5.50;99.90;;;;;;5051526;28;20024;-75
2021/12/13 01:20:43;;;;;;;189.35;60.08;;;-5.50;99.90;;;;;;5051126;28;20466;-75
2021/12/13 01:23:16;;;;;;;230.82;61.08;;;-5.50;99.90;;;;;;5050119;28;20385;-75
2021/12/13 01:26:13;;;;;;;203.73;63.72;;;-5.50;99.90;;;;;;5051081;28;20056;-75
2021/12/13 01:28:43;;;;;;;193.85;59.00;;;-5.60;99.90;;;;;;5051014;28;20024;-75
2021/12/13 01:31:25;;;;;;;285.85;68.90;;;-5.60;99.90;;;;;;5050983;28;20025;-75
2021/12/13 01:33:54;;;;;;;195.52;63.60;;;-5.60;99.90;;;;;;5050932;28;20488;-75
2021/12/13 01:36:28;;;;;;;202.13;59.78;;;-5.60;99.90;;;;;;5050811;28;20432;-75
2021/12/13 01:39:00;;;;;;;228.50;64.13;;;-5.70;99.90;;;;;;5050816;28;20390;-75
2021/12/13 01:41:52;;;;;;;226.43;65.32;;;-5.60;99.90;;;;;;5049585;28;20028;-75
2021/12/13 01:44:28;;;;;;;178.43;59.50;;;-5.70;99.90;;;;;;5050342;27;20094;-75
2021/12/13 01:46:58;;;;;;;233.50;70.30;;;-5.60;99.90;;;;;;5050731;28;20028;-75
2021/12/13 01:49:42;;;;;;;338.40;82.90;;;-5.60;99.90;;;;;;5050667;28;20640;-75
2021/12/13 01:52:16;;;;;;;248.82;71.28;;;-5.60;99.90;;;;;;5050598;28;20524;-75
2021/12/13 01:54:43;;;;;;;230.25;68.93;;;-5.70;99.90;;;;;;5049208;28;20088;-75
2021/12/13 02:00:08;;;;;;;257.77;72.15;;;-5.60;99.90;;;;;;5049833;28;20140;-75
2021/12/13 02:02:40;;;;;;;206.23;66.95;;;-5.60;99.90;;;;;;5050498;28;20029;-75
2021/12/13 02:05:14;;;;;;;214.20;70.97;;;-5.60;99.90;;;;;;5050413;28;20367;-75
2021/12/13 02:07:48;;;;;;;219.75;68.40;;;-5.80;99.90;;;;;;5049186;28;20040;-74
2021/12/13 02:10:17;;;;;;;216.65;65.13;;;-5.90;99.90;;;;;;5050343;28;20024;-75
2021/12/13 02:12:46;;;;;;;186.07;68.18;;;-5.80;99.90;;;;;;5050368;28;20033;-75
2021/12/13 02:17:59;;;;;;;190.48;63.63;;;-5.90;99.90;;;;;;5050264;28;20039;-75
2021/12/13 02:20:37;;;;;;;158.32;59.65;;;-6.00;99.90;;;;;;5050469;28;20037;-76
2021/12/13 02:23:05;;;;;;;204.40;69.63;;;-6.10;99.90;;;;;;5048944;28;20025;-76
2021/12/13 02:25:34;;;;;;;164.43;62.25;;;-6.10;99.90;;;;;;5048794;28;20024;-77
2021/12/13 02:28:05;;;;;;;176.98;60.63;;;-6.20;99.90;;;;;;5050110;28;20025;-77
2021/12/13 02:30:45;;;;;;;146.48;55.40;;;-6.20;99.90;;;;;;5048799;27;20032;-77
2021/12/13 02:33:19;;;;;;;129.52;53.35;;;-6.30;99.90;;;;;;5048820;28;20017;-77
2021/12/13 02:35:52;;;;;;;130.63;54.67;;;-6.30;99.90;;;;;;5049846;27;20060;-77
2021/12/13 02:38:20;;;;;;;123.72;51.90;;;-6.30;99.90;;;;;;5049987;28;20029;-77
2021/12/13 02:40:46;;;;;;;129.68;54.08;;;-6.30;99.90;;;;;;5048693;27;20031;-77
2021/12/13 02:43:15;;;;;;;135.27;54.30;;;-6.40;99.90;;;;;;5050000;28;20040;-77
2021/12/13 02:45:46;;;;;;;134.77;53.67;;;-6.30;99.90;;;;;;5049902;28;20029;-77
2021/12/13 02:48:18;;;;;;;135.13;58.67;;;-6.30;99.90;;;;;;5049814;28;20100;-77
2021/12/13 02:50:47;;;;;;;150.00;58.22;;;-6.20;99.90;;;;;;5049829;28;20029;-77
2021/12/13 02:53:17;;;;;;;164.20;61.80;;;-6.20;99.90;;;;;;5048471;28;20033;-77
2021/12/13 02:55:43;;;;;;;151.25;56.45;;;-6.20;99.90;;;;;;5048416;28;20123;-77
2021/12/13 02:58:14;;;;;;;147.93;59.30;;;-6.10;99.90;;;;;;5049732;28;20108;-77
2021/12/13 03:00:44;;;;;;;159.98;58.92;;;-6.10;99.90;;;;;;5048382;27;20024;-77
2021/12/13 03:03:16;;;;;;;185.75;62.50;;;-6.10;99.90;;;;;;5049648;28;20025;-77
2021/12/13 03:05:45;;;;;;;179.73;62.13;;;-6.10;99.90;;;;;;5049672;28;20029;-77
2021/12/13 03:08:18;;;;;;;167.15;66.15;;;-6.10;99.90;;;;;;5049545;28;20025;-77
2021/12/13 03:11:02;;;;;;;167.05;68.93;;;-6.10;99.90;;;;;;5050694;28;20485;-77
2021/12/13 03:13:31;;;;;;;178.75;62.20;;;-6.00;99.90;;;;;;5051845;28;20398;-77
2021/12/13 03:16:05;;;;;;;199.35;66.90;;;-6.00;99.90;;;;;;5051659;28;20512;-77
2021/12/13 03:18:50;;;;;;;210.07;69.93;;;-5.90;99.90;;;;;;5051771;28;20390;-77
2021/12/13 03:21:24;;;;;;;180.07;66.93;;;-5.90;99.90;;;;;;5051718;28;20054;-77
2021/12/13 03:24:19;;;;;;;231.80;68.00;;;-5.90;99.90;;;;;;5051580;27;20043;-77
2021/12/13 03:27:09;;;;;;;361.67;91.13;;;-5.80;99.90;;;;;;5052947;28;20021;-77
2021/12/13 03:30:03;;;;;;;194.88;67.25;;;-5.80;99.90;;;;;;5052837;28;20033;-77
2021/12/13 03:32:39;;;;;;;225.70;66.22;;;-5.80;99.90;;;;;;5051552;28;20036;-77
2021/12/13 03:35:13;;;;;;;260.23;71.47;;;-5.90;99.90;;;;;;5052644;28;20114;-77
2021/12/13 03:37:41;;;;;;;243.83;67.80;;;-6.00;99.90;;;;;;5052736;28;20025;-77
2021/12/13 03:40:16;;;;;;;234.88;69.38;;;-6.00;99.90;;;;;;5052655;28;20021;-77
2021/12/13 03:42:50;;;;;;;361.80;83.45;;;-6.10;99.90;;;;;;5052764;28;20428;-77
2021/12/13 03:45:28;;;;;;;203.65;70.97;;;-6.10;99.90;;;;;;5051347;27;20031;-77
2021/12/13 03:47:56;;;;;;;212.45;68.25;;;-6.10;99.90;;;;;;5052693;28;20024;-77
2021/12/13 03:50:33;;;;;;;232.82;76.55;;;-6.10;99.90;;;;;;5052496;28;20025;-78
2021/12/13 03:53:04;;;;;;;169.30;62.20;;;-6.10;99.90;;;;;;5052444;28;20024;-77
2021/12/13 03:55:32;;;;;;;245.63;70.65;;;-6.10;99.90;;;;;;5052207;27;20048;-77
2021/12/13 03:58:03;;;;;;;183.68;61.85;;;-6.20;99.90;;;;;;5052425;28;20017;-77
2021/12/13 04:00:32;;;;;;;170.05;64.32;;;-6.20;99.90;;;;;;5052371;28;20029;-77
2021/12/13 04:03:02;;;;;;;198.57;65.47;;;-6.20;99.90;;;;;;5052355;28;20025;-77
2021/12/13 04:05:29;;;;;;;219.45;63.35;;;-6.30;99.90;;;;;;5052488;28;20021;-77
2021/12/13 04:08:02;;;;;;;220.38;64.13;;;-6.40;99.90;;;;;;5051046;28;20017;-77
2021/12/13 04:10:30;;;;;;;;;;;-6.50;99.90;;;;;;5051367;28;20036;-77
2021/12/13 04:12:58;;;;;;;130.88;49.35;;;-6.50;99.90;;;;;;5052290;28;19959;-77
2021/12/13 04:15:31;;;;;;;161.77;58.37;;;-6.60;99.90;;;;;;5052059;28;20431;-77
2021/12/13 04:18:12;;;;;;;161.18;61.50;;;-6.70;99.90;;;;;;5050850;28;20423;-77
2021/12/13 04:20:39;;;;;;;169.30;61.70;;;-6.80;99.90;;;;;;5051885;28;20053;-77
2021/12/13 04:23:18;;;;;;;128.80;56.07;;;-6.90;99.90;;;;;;5051462;28;20049;-77
2021/12/13 04:25:48;;;;;;;133.52;52.85;;;-7.00;99.90;;;;;;5051995;28;20155;-76
2021/12/13 04:28:24;;;;;;;130.93;55.30;;;-7.00;99.90;;;;;;5052016;28;20052;-77
2021/12/13 04:31:00;;;;;;;137.80;55.00;;;-7.00;99.90;;;;;;5050633;28;20052;-77
2021/12/13 04:33:33;;;;;;;129.67;52.27;;;-7.10;99.90;;;;;;5050597;28;20474;-78
2021/12/13 04:36:33;;;;;;;125.30;50.47;;;-7.10;99.90;;;;;;5050568;28;20036;-77
2021/12/13 04:39:19;;;;;;;118.77;49.43;;;-7.10;99.90;;;;;;5031757;28;20033;-78
2021/12/13 04:42:01;;;;;;;126.77;49.40;;;-7.10;99.90;;;;;;5040980;28;20040;-78
2021/12/13 04:45:07;;;;;;;122.33;52.53;;;-7.10;99.90;;;;;;5051668;28;20061;-77
2021/12/13 04:47:57;;;;;;;116.70;48.37;;;-7.10;99.90;;;;;;5051045;27;20120;-77
2021/12/13 04:50:32;;;;;;;105.05;47.40;;;-7.10;99.90;;;;;;5041467;28;20040;-77
2021/12/13 04:52:58;;;;;;;118.73;53.07;;;-7.20;99.90;;;;;;5051599;28;20040;-77
2021/12/13 04:55:32;;;;;;;116.83;49.27;;;-7.20;99.90;;;;;;5050090;28;20040;-77
2021/12/13 04:58:01;;;;;;;113.37;47.07;;;-7.30;99.90;;;;;;5050313;28;20029;-77
2021/12/13 05:00:31;;;;;;;105.47;46.10;;;-7.30;99.90;;;;;;5051406;28;20033;-77
2021/12/13 05:03:01;;;;;;;115.90;49.07;;;-7.40;99.90;;;;;;5050252;28;20451;-77
2021/12/13 05:05:28;;;;;;;108.77;47.37;;;-7.40;99.90;;;;;;5051344;28;20598;-77
2021/12/13 05:07:55;;;;;;;115.27;48.37;;;-7.40;99.90;;;;;;5050086;28;20018;-77
2021/12/13 05:10:25;;;;;;;119.30;48.87;;;-7.40;99.90;;;;;;5051309;28;20032;-77
2021/12/13 05:13:09;;;;;;;112.23;49.63;;;-7.50;99.90;;;;;;5051309;28;20017;-77
2021/12/13 05:15:38;;;;;;;113.77;49.23;;;-7.50;99.90;;;;;;5049842;28;20398;-78
2021/12/13 05:18:10;;;;;;;115.20;49.17;;;-7.50;99.90;;;;;;5051177;28;20025;-77
2021/12/13 05:20:39;;;;;;;119.70;50.73;;;-7.50;99.90;;;;;;5049814;28;20104;-77
2021/12/13 05:23:10;;;;;;;115.70;53.17;;;-7.50;99.90;;;;;;5051103;28;20363;-77
2021/12/13 05:25:41;;;;;;;114.27;53.87;;;-7.50;99.90;;;;;;5051004;28;20071;-77
2021/12/13 05:28:18;;;;;;;115.03;50.40;;;-7.40;99.90;;;;;;5049799;28;20538;-77
2021/12/13 05:30:54;;;;;;;123.17;51.27;;;-7.40;99.90;;;;;;5050974;28;20425;-77
2021/12/13 05:33:21;;;;;;;150.40;57.17;;;-7.40;99.90;;;;;;5050825;28;20017;-77
2021/12/13 05:35:52;;;;;;;133.83;55.43;;;-7.40;99.90;;;;;;5050788;28;20037;-77
2021/12/13 05:38:26;;;;;;;132.77;55.57;;;-7.50;99.90;;;;;;5050949;28;20383;-77
2021/12/13 05:40:53;;;;;;;131.73;54.80;;;-7.60;99.90;;;;;;5049241;28;20028;-77
2021/12/13 05:43:32;;;;;;;123.53;51.60;;;-7.60;99.90;;;;;;5048771;28;20033;-77
2021/12/13 05:46:07;;;;;;;123.20;51.80;;;-7.60;99.90;;;;;;5043941;27;20037;-76
2021/12/13 05:48:47;;;;;;;111.33;50.73;;;-7.60;99.90;;;;;;5059889;27;20031;-77
2021/12/13 05:51:30;;;;;;;121.10;48.47;;;-7.70;99.90;;;;;;5131011;27;20042;-77
2021/12/13 05:54:24;;;;;;;133.15;51.85;;;-7.70;99.90;;;;;;5129999;27;20499;-78
2021/12/13 05:57:01;;;;;;;129.80;49.67;;;-7.70;99.90;;;;;;5129659;27;20062;-77
2021/12/13 05:59:33;;;;;;;125.63;50.87;;;-7.70;99.90;;;;;;5133732;27;20026;-77
2021/12/13 06:02:11;;;;;;;129.60;55.80;;;-7.70;99.90;;;;;;5133158;27;20015;-77
2021/12/13 06:04:39;;;;;;;124.73;53.43;;;-7.80;99.90;;;;;;5134377;27;20019;-77
2021/12/13 06:07:19;;;;;;;129.90;50.50;;;-7.80;99.90;;;;;;5133062;27;20031;-77
2021/12/13 06:10:02;;;;;;;111.07;47.77;;;-7.80;99.90;;;;;;5134304;27;20047;-77
2021/12/13 06:12:45;;;;;;;110.37;45.10;;;-7.90;99.90;;;;;;5133647;27;20493;-77
2021/12/13 06:15:17;;;;;;;118.30;46.37;;;-7.90;99.90;;;;;;5073096;27;20086;-77
2021/12/13 06:18:02;;;;;;;102.60;43.90;;;-7.90;99.90;;;;;;5027827;28;20033;-78
2021/12/13 06:20:32;;;;;;;125.80;51.53;;;-7.90;99.90;;;;;;5020881;28;20038;-76
2021/12/13 06:23:17;;;;;;;150.77;62.03;;;-7.90;99.90;;;;;;5063093;27;20015;-76
2021/12/13 06:25:47;;;;;;;137.93;53.30;;;-7.90;99.90;;;;;;5048186;28;20045;-76
2021/12/13 06:28:25;;;;;;;146.57;59.10;;;-7.80;99.90;;;;;;5048647;28;20096;-77
2021/12/13 06:31:16;;;;;;;144.30;57.43;;;-7.80;99.90;;;;;;5028222;28;20030;-75
2021/12/13 06:33:53;;;;;;;148.10;58.80;;;-7.80;99.90;;;;;;5020926;28;20102;-75
2021/12/13 06:36:29;;;;;;;137.73;55.07;;;-7.80;99.90;;;;;;5029598;28;20054;-76
2021/12/13 06:39:12;;;;;;;121.90;51.90;;;-7.80;99.90;;;;;;5039010;28;20028;-76
2021/12/13 06:41:47;;;;;;;121.33;49.33;;;-7.80;99.90;;;;;;5047407;28;20037;-76
2021/12/13 06:44:24;;;;;;;117.83;48.57;;;-7.80;99.90;;;;;;5047604;28;20033;-76
2021/12/13 06:47:01;;;;;;;114.50;48.70;;;-7.80;99.90;;;;;;5049091;28;20041;-76
2021/12/13 06:49:44;;;;;;;120.03;54.43;;;-7.80;99.90;;;;;;5047471;28;20490;-75
2021/12/13 06:52:12;;;;;;;127.07;52.30;;;-7.80;99.90;;;;;;5029755;28;20021;-77
2021/12/13 06:54:54;;;;;;;136.77;56.20;;;-7.80;99.90;;;;;;5028544;28;20034;-77
2021/12/13 06:57:31;;;;;;;132.47;52.10;;;-7.80;99.90;;;;;;5029936;28;20108;-77
2021/12/13 07:00:11;;;;;;;119.83;50.33;;;-7.80;99.90;;;;;;5028648;28;20268;-77
2021/12/13 07:02:51;;;;;;;126.63;50.97;;;-7.80;99.90;;;;;;5029712;28;20020;-77
2021/12/13 07:05:25;;;;;;;130.30;53.60;;;-7.80;99.90;;;;;;5042734;28;20032;-77
2021/12/13 07:07:53;;;;;;;139.80;52.90;;;-7.80;99.90;;;;;;5026417;28;20116;-76
2021/12/13 07:10:55;;;;;;;126.33;51.63;;;-7.70;99.90;;;;;;5126463;27;20027;-76
2021/12/13 07:14:01;;;;;;;130.90;54.80;;;-7.80;99.90;;;;;;5151189;27;20034;-77
2021/12/13 07:16:33;;;;;;;136.67;54.27;;;-7.70;99.90;;;;;;5140150;27;20560;-76
2021/12/13 07:19:18;;;;;;;162.75;64.03;;;-7.70;99.90;;;;;;5152959;27;20034;-76
2021/12/13 07:21:51;;;;;;;228.00;83.83;;;-7.60;99.90;;;;;;5154243;27;20484;-76
2021/12/13 07:24:27;;;;;;;193.33;75.00;;;-7.50;99.90;;;;;;5154180;27;20066;-77
2021/12/13 07:27:09;;;;;;;154.83;63.23;;;-7.50;99.90;;;;;;5152902;27;20528;-76
2021/12/13 07:29:34;;;;;;;174.53;71.53;;;-7.40;99.90;;;;;;5152819;27;20030;-77
2021/12/13 07:32:12;;;;;;;177.80;72.50;;;-7.30;99.90;;;;;;5152882;27;20026;-77
2021/12/13 07:34:56;;;;;;;178.23;73.60;;;-7.20;99.90;;;;;;5154091;27;20023;-77
2021/12/13 07:37:39;;;;;;;168.83;74.60;;;-7.00;99.90;;;;;;5154108;27;20031;-77
2021/12/13 07:40:42;;;;;;;178.80;69.20;;;-6.90;99.90;;;;;;5154033;27;20102;-77
2021/12/13 07:43:08;;;;;;;170.50;73.03;;;-6.80;99.90;;;;;;5152703;27;20121;-76
2021/12/13 07:46:05;;;;;;;205.07;84.17;;;-6.60;99.90;;;;;;5153921;27;20042;-77
2021/12/13 07:48:55;;;;;;;252.00;96.45;;;-6.50;99.90;;;;;;5153977;27;20029;-76
2021/12/13 07:51:25;;;;;;;193.70;81.77;;;-6.40;99.90;;;;;;5152758;27;20376;-76
2021/12/13 07:54:01;;;;;;;212.43;88.78;;;-6.20;99.90;;;;;;5153950;27;20037;-76
2021/12/13 07:56:29;;;;;;;220.00;87.30;;;-6.10;99.90;;;;;;5154517;27;20033;-76
2021/12/13 07:59:04;;;;;;;199.85;85.47;;;-6.00;99.90;;;;;;5156348;27;20450;-76
2021/12/13 08:01:33;;;;;;;174.98;72.32;;;-5.90;99.90;;;;;;5157616;27;20030;-76
2021/12/13 08:04:08;;;;;;;152.75;64.72;;;-5.70;99.90;;;;;;5156326;27;20023;-76
2021/12/13 08:07:01;;;;;;;165.52;72.50;;;-5.70;99.90;;;;;;5157587;27;20060;-76
2021/12/13 08:09:29;;;;;;;184.13;82.05;;;-5.50;99.90;;;;;;5142457;27;20103;-74
2021/12/13 08:12:13;;;;;;;184.32;82.22;;;-5.50;99.90;;;;;;5157542;27;20022;-74
2021/12/13 08:14:42;;;;;;;194.55;84.13;;;-5.30;99.90;;;;;;5157448;27;20026;-74
2021/12/13 08:17:18;;;;;;;210.57;90.28;;;-5.20;99.90;;;;;;5156524;27;20090;-73
2021/12/13 08:19:53;;;;;;;182.75;86.93;;;-5.10;99.90;;;;;;5092838;27;20033;-74
2021/12/13 08:22:20;;;;;;;202.10;90.93;;;-5.00;99.90;;;;;;5049916;28;20111;-74
2021/12/13 08:24:50;;;;;;;193.43;88.50;;;-4.80;99.90;;;;;;5049941;28;20068;-73
2021/12/13 08:27:35;;;;;;;201.23;86.70;;;-4.70;99.90;;;;;;5049565;28;20051;-74
2021/12/13 08:30:16;;;;;;;203.65;89.15;;;-4.50;99.90;;;;;;5052889;28;20497;-74
2021/12/13 08:32:58;;;;;;;183.18;76.55;;;-4.30;99.90;;;;;;5051553;28;20029;-74
2021/12/13 08:35:24;;;;;;;146.65;64.63;;;-4.10;99.90;;;;;;5050539;28;20029;-74
2021/12/13 08:37:58;;;;;;;140.45;69.03;;;-4.00;99.90;;;;;;5051862;28;20023;-74
2021/12/13 08:40:30;;;;;;;129.35;60.45;;;-4.00;99.90;;;;;;5050520;28;20107;-74
2021/12/13 08:42:58;;;;;;;133.45;62.42;;;-4.00;99.90;;;;;;5051784;28;20055;-77
2021/12/13 08:45:35;;;;;;;138.68;62.90;;;-3.90;99.90;;;;;;5050797;28;20082;-74
2021/12/13 08:48:05;;;;;;;124.55;59.53;;;-3.90;99.90;;;;;;5049606;28;20021;-74
2021/12/13 08:50:42;;;;;;;124.78;57.25;;;-3.80;99.90;;;;;;5048231;28;20025;-74
2021/12/13 08:53:24;;;;;;;138.93;56.78;;;-3.70;99.90;;;;;;5048197;28;20120;-76
2021/12/13 08:56:13;;;;;;;200.77;93.40;;;-3.60;99.90;;;;;;5048143;28;20033;-76
2021/12/13 08:58:52;;;;;;;200.80;90.57;;;-3.50;99.90;;;;;;5049369;28;20816;-76
2021/12/13 09:01:17;;;;;;;215.70;95.47;;;-3.40;99.90;;;;;;5048631;28;20131;-76
2021/12/13 09:03:47;;;;;;;227.13;107.45;;;-3.30;99.90;;;;;;5050122;28;20132;-76
2021/12/13 09:06:18;;;;;;;231.38;107.07;;;-3.20;99.90;;;;;;5050126;28;20189;-76
2021/12/13 09:08:45;;;;;;;210.43;101.05;;;-3.00;99.90;;;;;;5050990;28;20040;-76
2021/12/13 09:11:27;;;;;;;226.52;107.25;;;-2.90;99.90;;;;;;5050069;28;20021;-76
2021/12/13 09:14:15;;;;;;;224.13;105.93;;;-2.90;99.90;;;;;;5051259;28;20025;-76
2021/12/13 09:16:46;;;;;;;225.20;105.72;;;-2.70;99.90;;;;;;5051203;28;20105;-77
2021/12/13 09:19:18;;;;;;;230.45;112.38;;;-2.60;99.90;;;;;;5049915;28;20021;-76
2021/12/13 09:22:23;;;;;;;228.02;113.22;;;-2.50;99.90;;;;;;5047441;28;20033;-76
2021/12/13 09:25:31;;;;;;;287.08;123.97;;;-2.40;99.90;;;;;;5049094;28;20040;-76
2021/12/13 09:28:01;;;;;;;315.50;130.15;;;-2.20;99.90;;;;;;5027700;28;20033;-76
2021/12/13 09:30:36;;;;;;;316.70;135.25;;;-2.10;99.90;;;;;;5050660;28;20029;-76
2021/12/13 09:33:16;;;;;;;273.38;120.55;;;-1.90;99.90;;;;;;5049110;28;20517;-76
2021/12/13 09:35:56;;;;;;;230.85;100.75;;;-1.80;99.90;;;;;;5048812;28;20488;-76
2021/12/13 09:38:52;;;;;;;185.93;87.25;;;-1.70;99.90;;;;;;5049492;28;20108;-76
2021/12/13 09:41:24;;;;;;;204.93;89.05;;;-1.60;99.90;;;;;;5049667;27;20040;-76
2021/12/13 09:43:58;;;;;;;163.10;73.57;;;-1.50;99.90;;;;;;5050681;28;20586;-76
2021/12/13 09:46:43;;;;;;;135.52;61.88;;;-1.50;99.90;;;;;;5050695;28;20679;-76
2021/12/13 09:49:29;;;;;;;112.72;50.35;;;-1.40;99.90;;;;;;5050682;28;20029;-76
2021/12/13 09:52:19;;;;;;;111.40;52.22;;;-1.30;99.90;;;;;;5049462;27;20390;-76
2021/12/13 09:55:06;;;;;;;111.13;49.97;;;-1.30;99.90;;;;;;5050672;28;20044;-76
2021/12/13 09:57:39;;;;;;;115.38;53.88;;;-1.30;99.90;;;;;;5050612;28;20109;-76
2021/12/13 10:00:24;;;;;;;;;;;-1.20;99.90;;;;;;5049751;28;20017;-76
2021/12/13 10:02:54;;;;;;;96.07;43.58;;;-1.20;99.90;;;;;;5050629;28;19905;-76
2021/12/13 10:05:26;;;;;;;97.22;46.42;;;-1.20;99.90;;;;;;5049196;28;20048;-76
2021/12/13 10:07:55;;;;;;;106.60;46.47;;;-1.10;99.90;;;;;;5049096;27;20469;-76
2021/12/13 10:10:32;;;;;;;94.45;46.67;;;-1.10;99.90;;;;;;5049086;28;20028;-76
2021/12/13 10:13:12;;;;;;;107.07;48.83;;;-1.10;99.90;;;;;;5049146;28;20021;-76
2021/12/13 10:15:46;;;;;;;96.63;45.08;;;-1.10;99.90;;;;;;5050207;28;20471;-76
2021/12/13 10:18:17;;;;;;;97.07;45.78;;;-1.00;99.90;;;;;;5050308;28;20441;-75
2021/12/13 10:20:56;;;;;;;107.07;49.33;;;-1.00;99.90;;;;;;5049324;28;20045;-76
2021/12/13 10:23:27;;;;;;;101.30;47.10;;;-1.00;99.90;;;;;;5050327;28;20077;-76
2021/12/13 10:25:57;;;;;;;98.20;46.65;;;-0.90;99.90;;;;;;5048920;28;20021;-76
2021/12/13 10:28:28;;;;;;;93.93;46.58;;;-0.90;99.90;;;;;;5048978;28;20024;-76
2021/12/13 10:31:09;;;;;;;89.35;44.00;;;-0.90;99.90;;;;;;5050076;28;20043;-76
2021/12/13 10:33:37;;;;;;;105.38;45.50;;;-0.90;99.90;;;;;;5049797;27;20032;-76
2021/12/13 10:36:06;;;;;;;98.38;47.45;;;-0.80;99.90;;;;;;5049950;28;20029;-76
2021/12/13 10:38:43;;;;;;;102.78;46.45;;;-0.80;99.90;;;;;;5048696;28;20017;-76
2021/12/13 10:41:15;;;;;;;85.40;39.10;;;-0.80;99.90;;;;;;5049796;28;20013;-76
2021/12/13 10:43:48;;;;;;;79.72;39.90;;;-0.70;99.90;;;;;;5048448;27;20029;-76
2021/12/13 10:46:25;;;;;;;88.57;43.08;;;-0.80;99.90;;;;;;5048672;28;20025;-76
2021/12/13 10:49:00;;;;;;;96.78;44.15;;;-0.80;99.90;;;;;;5048552;27;20033;-76
2021/12/13 10:51:32;;;;;;;81.43;39.70;;;-0.70;99.90;;;;;;5048580;28;20032;-75
2021/12/13 10:54:03;;;;;;;81.85;38.05;;;-0.60;99.90;;;;;;5049767;28;20021;-76
2021/12/13 10:56:33;;;;;;;77.68;34.85;;;-0.60;99.90;;;;;;5049677;28;20037;-76
2021/12/13 10:59:04;;;;;;;61.78;33.22;;;-0.60;99.90;;;;;;5049703;28;20025;-76
2021/12/13 11:01:35;;;;;;;67.70;33.75;;;-0.60;99.90;;;;;;5049650;28;20029;-76
2021/12/13 11:04:06;;;;;;;63.13;34.15;;;-0.50;99.90;;;;;;5049604;28;20100;-75
2021/12/13 11:06:35;;;;;;;72.30;32.80;;;-0.50;99.90;;;;;;5048278;28;20020;-76
2021/12/13 11:09:04;;;;;;;58.78;30.75;;;-0.40;99.90;;;;;;5048285;28;20100;-76
2021/12/13 11:11:40;;;;;;;69.55;35.17;;;-0.40;99.90;;;;;;5049496;28;20024;-75
2021/12/13 11:14:08;;;;;;;71.88;33.42;;;-0.40;99.90;;;;;;5049568;28;20103;-76
2021/12/13 11:16:41;;;;;;;77.63;37.83;;;-0.30;99.90;;;;;;5049316;28;20033;-76
2021/12/13 11:19:12;;;;;;;75.28;37.63;;;-0.30;99.90;;;;;;5049504;28;20040;-76
2021/12/13 11:21:42;;;;;;;79.80;36.97;;;-0.20;99.90;;;;;;5049436;28;20134;-76
2021/12/13 11:24:16;;;;;;;83.50;40.58;;;-0.20;99.90;;;;;;5046691;28;20020;-76
2021/12/13 11:26:44;;;;;;;75.45;37.67;;;-0.10;99.90;;;;;;5048042;27;20545;-76
2021/12/13 11:29:14;;;;;;;93.15;40.45;;;-0.10;99.90;;;;;;5047895;28;20013;-76
2021/12/13 11:31:52;;;;;;;91.57;45.97;;;-0.10;99.90;;;;;;5051577;28;20017;-76
2021/12/13 11:34:21;;;;;;;90.25;45.65;;;-0.10;99.90;;;;;;5052715;28;20093;-76
2021/12/13 11:37:11;;;;;;;87.28;42.13;;;-0.10;99.90;;;;;;5052717;28;20033;-75
2021/12/13 11:39:46;;;;;;;74.25;37.25;;;-0.10;99.90;;;;;;5051276;28;20093;-76
2021/12/13 11:42:45;;;;;;;82.32;40.97;;;-0.10;99.90;;;;;;5052007;28;20482;-75
2021/12/13 11:45:49;;;;;;;74.63;37.03;;;0.00;99.90;;;;;;5052511;28;20036;-75
2021/12/13 11:48:52;;;;;;;81.40;41.15;;;0.00;99.90;;;;;;5051359;28;20029;-76
2021/12/13 11:51:38;;;;;;;91.60;41.25;;;0.10;99.90;;;;;;5051325;28;20032;-75
2021/12/13 11:54:29;;;;;;;85.28;41.42;;;0.00;99.90;;;;;;5052533;28;20029;-76
2021/12/13 11:57:24;;;;;;;93.20;42.97;;;0.10;99.90;;;;;;5041357;28;20044;-76
2021/12/13 12:00:27;;;;;;;92.45;44.38;;;0.10;99.90;;;;;;5052437;28;20436;-76
2021/12/13 12:03:54;;;;;;;90.25;45.97;;;0.10;99.90;;;;;;5052358;28;20474;-75
2021/12/13 12:06:53;;;;;;;98.40;46.33;;;0.10;99.90;;;;;;4991095;28;20034;-75
2021/12/13 12:09:49;;;;;;;88.60;42.97;;;0.20;99.90;;;;;;5050966;28;20075;-78
2021/12/13 12:12:50;;;;;;;95.93;47.00;;;0.30;99.90;;;;;;5052293;28;20531;-75
2021/12/13 12:15:18;;;;;;;90.78;45.75;;;0.40;99.90;;;;;;5047128;28;20136;-75
2021/12/13 12:17:43;;;;;;;92.40;45.55;;;0.40;99.90;;;;;;5131195;27;20027;-76
2021/12/13 12:20:13;;;;;;;106.10;47.33;;;0.50;99.90;;;;;;5134856;27;20050;-75
2021/12/13 12:22:55;;;;;;;100.18;49.75;;;0.50;99.90;;;;;;5134545;27;20138;-75
2021/12/13 12:25:24;;;;;;;101.80;48.08;;;0.50;99.90;;;;;;5134851;27;20050;-75
2021/12/13 12:27:56;;;;;;;107.70;49.05;;;0.60;99.90;;;;;;5134868;27;20023;-76
2021/12/13 12:30:26;;;;;;;102.93;52.35;;;0.60;99.90;;;;;;5133187;27;20045;-75
2021/12/13 12:32:57;;;;;;;104.55;51.47;;;0.70;99.90;;;;;;5135995;27;20019;-75
2021/12/13 12:35:36;;;;;;;101.88;51.00;;;0.70;99.90;;;;;;5135956;27;20031;-75
2021/12/13 12:38:10;;;;;;;110.63;53.17;;;0.80;99.90;;;;;;5135553;27;20031;-75
2021/12/13 12:40:39;;;;;;;112.35;52.13;;;0.80;99.90;;;;;;5136268;27;20019;-75
2021/12/13 12:43:11;;;;;;;108.82;51.55;;;0.80;99.90;;;;;;5134055;27;20050;-75
2021/12/13 12:45:46;;;;;;;112.20;53.67;;;0.80;99.90;;;;;;5135911;27;20015;-75
2021/12/13 12:48:23;;;;;;;115.82;52.88;;;0.80;99.90;;;;;;5136103;27;20044;-75
2021/12/13 12:50:59;;;;;;;109.95;51.33;;;0.80;99.90;;;;;;5136019;27;20024;-75
2021/12/13 12:53:41;;;;;;;106.88;50.35;;;0.80;99.90;;;;;;5134661;27;20019;-75
2021/12/13 12:56:10;;;;;;;112.65;53.28;;;0.80;99.90;;;;;;5135885;27;20031;-75
2021/12/13 12:58:45;;;;;;;110.68;55.85;;;0.80;99.90;;;;;;5135828;27;20023;-75
2021/12/13 13:01:23;;;;;;;114.85;57.97;;;0.80;99.90;;;;;;5135822;27;20057;-75
2021/12/13 13:03:49;;;;;;;131.95;59.58;;;0.80;99.90;;;;;;5134526;27;20389;-75
2021/12/13 13:06:21;;;;;;;123.35;61.67;;;0.70;99.90;;;;;;5134404;27;20388;-75
2021/12/13 13:08:51;;;;;;;125.63;62.45;;;0.70;99.90;;;;;;5134395;27;20385;-75
2021/12/13 13:14:10;;;;;;;134.63;64.78;;;0.70;99.90;;;;;;5135944;27;20038;-75
2021/12/13 13:16:41;;;;;;;133.50;64.25;;;0.70;99.90;;;;;;5135481;27;20031;-75